GONZO KMEM-KLIT
Flight info
| Callsign | GONZO |
|---|---|
| Flight time | N/A |
| Altitude | 4500 |
| Route | HUGHES KFCY KM36 K4M3 |
| Aircraft | DA40/L-SDFGRY/S |
Departure
| Time | 2026-05-04 21:00 |
|---|---|
| Airport | Memphis International Airport (KMEM) |
Arrival
| Time | N/A |
|---|---|
| Airport | Bill & Hillary Clinton National Airport/Adams Field (KLIT) |
| Time | Latitude | Longitude | Altitude | Speed | Heading |
|---|---|---|---|---|---|
| 2026-05-04 20:17 | 35.05434 | -89.98255 | 324 ft | 0 kts | 271° |
| 2026-05-04 20:18 | 35.05433 | -89.98267 | 324 ft | 0 kts | 274° |
| 2026-05-04 20:37 | 35.05433 | -89.98270 | 324 ft | 0 kts | 272° |
| 2026-05-04 20:48 | 35.05435 | -89.98285 | 324 ft | 3 kts | 308° |
| 2026-05-04 20:48 | 35.05461 | -89.98334 | 324 ft | 8 kts | 294° |
| 2026-05-04 20:48 | 35.05468 | -89.98346 | 324 ft | 2 kts | 336° |
| 2026-05-04 20:48 | 35.05493 | -89.98355 | 324 ft | 7 kts | 344° |
| 2026-05-04 20:49 | 35.05537 | -89.98374 | 324 ft | 8 kts | 336° |
| 2026-05-04 20:49 | 35.05568 | -89.98426 | 324 ft | 11 kts | 276° |
| 2026-05-04 20:49 | 35.05565 | -89.98482 | 324 ft | 6 kts | 248° |
| 2026-05-04 20:49 | 35.05521 | -89.98508 | 324 ft | 10 kts | 177° |
| 2026-05-04 20:50 | 35.05438 | -89.98510 | 324 ft | 13 kts | 179° |
| 2026-05-04 20:50 | 35.05323 | -89.98510 | 324 ft | 20 kts | 181° |
| 2026-05-04 20:50 | 35.05185 | -89.98512 | 324 ft | 20 kts | 181° |
| 2026-05-04 20:50 | 35.05060 | -89.98512 | 324 ft | 16 kts | 184° |
| 2026-05-04 20:51 | 35.04946 | -89.98514 | 324 ft | 17 kts | 181° |
| 2026-05-04 20:51 | 35.04828 | -89.98510 | 324 ft | 18 kts | 180° |
| 2026-05-04 20:51 | 35.04715 | -89.98523 | 324 ft | 13 kts | 209° |
| 2026-05-04 20:51 | 35.04678 | -89.98569 | 324 ft | 7 kts | 253° |
| 2026-05-04 20:52 | 35.04647 | -89.98621 | 324 ft | 9 kts | 223° |
| 2026-05-04 20:52 | 35.04631 | -89.98639 | 324 ft | 0 kts | 215° |
| 2026-05-04 20:57 | 35.04616 | -89.98651 | 325 ft | 10 kts | 211° |
| 2026-05-04 20:57 | 35.04538 | -89.98701 | 325 ft | 13 kts | 205° |
| 2026-05-04 20:58 | 35.04455 | -89.98732 | 323 ft | 7 kts | 180° |
| 2026-05-04 20:58 | 35.04454 | -89.98731 | 323 ft | 0 kts | 179° |
| 2026-05-04 20:59 | 35.04447 | -89.98731 | 323 ft | 12 kts | 180° |
| 2026-05-04 20:59 | 35.04168 | -89.98727 | 322 ft | 65 kts | 179° |
| 2026-05-04 20:59 | 35.03655 | -89.98722 | 486 ft | 73 kts | 183° |
| 2026-05-04 20:59 | 35.03138 | -89.98752 | 678 ft | 78 kts | 184° |
| 2026-05-04 21:00 | 35.02602 | -89.98831 | 888 ft | 78 kts | 203° |
| 2026-05-04 21:00 | 35.02239 | -89.99315 | 1080 ft | 81 kts | 253° |
| 2026-05-04 21:00 | 35.02082 | -89.99970 | 1311 ft | 81 kts | 255° |
| 2026-05-04 21:00 | 35.01956 | -90.00654 | 1546 ft | 81 kts | 258° |
| 2026-05-04 21:01 | 35.01822 | -90.01317 | 1765 ft | 84 kts | 256° |
| 2026-05-04 21:01 | 35.01682 | -90.02080 | 1868 ft | 99 kts | 260° |
| 2026-05-04 21:01 | 35.01529 | -90.02950 | 1878 ft | 116 kts | 258° |
| 2026-05-04 21:01 | 35.01348 | -90.03955 | 1834 ft | 126 kts | 258° |